Time;durP1;ratioP1;P1;durP2;ratioP2;P2;SDS_P1;SDS_P2;PMS_P1;PMS_P2;Temp;Humidity;BMP_temperature;BMP_pressure;BME280_temperature;BME280_humidity;BME280_pressure;Samples;Min_cycle;Max_cycle;Signal;HPM_P1;HPM_P2
2022/11/13 00:02:56;;;;;;;60.50;52.53;;;6.20;99.90;;;;;;2613450;54;20138;-77
2022/11/13 00:08:45;;;;;;;51.90;46.43;;;6.20;99.90;;;;;;2613225;54;20648;-77
2022/11/13 00:14:33;;;;;;;59.47;53.20;;;6.20;99.90;;;;;;2614287;54;21070;-78
2022/11/13 00:20:21;;;;;;;66.40;59.20;;;6.20;99.90;;;;;;2613059;54;20382;-77
2022/11/13 00:26:14;;;;;;;55.37;49.27;;;6.10;99.90;;;;;;2613500;54;20147;-78
2022/11/13 00:32:02;;;;;;;67.30;60.30;;;6.00;99.90;;;;;;2614991;54;20414;-76
2022/11/13 00:37:50;;;;;;;62.77;56.10;;;5.90;99.90;;;;;;2613551;54;20158;-77
2022/11/13 00:43:38;;;;;;;61.90;55.10;;;6.00;99.90;;;;;;2616267;54;20669;-77
2022/11/13 00:52:48;;;;;;;49.40;41.83;;;6.00;99.90;;;;;;2615462;54;20388;-77
2022/11/13 00:55:51;;;;;;;52.63;47.27;;;6.00;99.90;;;;;;2615014;39;20482;-76
2022/11/13 00:58:17;;;;;;;55.23;41.40;;;6.00;99.90;;;;;;2615157;31;20689;-77
2022/11/13 01:04:04;;;;;;;34.83;30.90;;;6.00;99.90;;;;;;2616250;54;20946;-79
2022/11/13 01:09:52;;;;;;;32.67;29.33;;;6.00;99.90;;;;;;2616637;54;20130;-78
2022/11/13 01:15:42;;;;;;;30.03;24.63;;;5.90;99.90;;;;;;2616318;54;20145;-78
2022/11/13 01:21:30;;;;;;;24.30;20.93;;;5.80;99.90;;;;;;2616086;54;20383;-75
2022/11/13 01:27:18;;;;;;;22.37;19.97;;;6.00;99.90;;;;;;2615073;54;20143;-76
2022/11/13 01:33:05;;;;;;;19.97;18.00;;;5.80;99.90;;;;;;2615082;54;20129;-76
2022/11/13 01:38:54;;;;;;;24.33;21.57;;;5.80;99.90;;;;;;2615384;54;20130;-75
2022/11/13 01:44:51;;;;;;;17.63;15.60;;;5.80;99.90;;;;;;2615629;54;20487;-77
2022/11/13 01:50:38;;;;;;;18.77;16.87;;;5.90;99.90;;;;;;2615357;54;21018;-75
2022/11/13 01:56:26;;;;;;;20.43;18.40;;;5.70;99.90;;;;;;2617638;54;20504;-76
2022/11/13 02:02:14;;;;;;;20.07;17.97;;;5.70;99.90;;;;;;2616123;54;20206;-74
2022/11/13 02:08:02;;;;;;;20.27;18.17;;;5.70;99.90;;;;;;2616219;54;20126;-76
2022/11/13 02:13:50;;;;;;;19.73;17.60;;;5.70;99.90;;;;;;2616273;54;20411;-75
2022/11/13 02:19:45;;;;;;;20.90;17.80;;;5.70;99.90;;;;;;2617660;54;20155;-78
2022/11/13 02:25:34;;;;;;;19.40;17.60;;;5.70;99.90;;;;;;2617197;54;20904;-79
2022/11/13 02:31:22;;;;;;;19.80;17.70;;;5.70;99.90;;;;;;2616931;54;20488;-81
2022/11/13 02:40:32;;;;;;;20.53;16.37;;;5.50;99.90;;;;;;2616266;54;20440;-78
2022/11/13 02:46:19;;;;;;;31.60;18.10;;;5.50;99.90;;;;;;2616064;54;20376;-77
2022/11/13 02:55:28;;;;;;;19.90;17.40;;;5.40;99.90;;;;;;2615238;54;20548;-74
2022/11/13 03:01:16;;;;;;;20.97;18.50;;;5.30;99.90;;;;;;2616964;39;20538;-74
2022/11/13 03:07:04;;;;;;;22.20;19.27;;;5.30;99.90;;;;;;2612741;39;20554;-74
2022/11/13 03:12:51;;;;;;;21.70;19.40;;;5.10;99.90;;;;;;2614079;54;20150;-76
2022/11/13 03:18:39;;;;;;;24.23;20.57;;;5.10;99.90;;;;;;2614720;46;20155;-76
2022/11/13 03:24:27;;;;;;;30.37;20.73;;;5.10;99.90;;;;;;2615131;54;20427;-78
2022/11/13 03:30:15;;;;;;;28.40;22.63;;;4.80;99.90;;;;;;2618051;54;20129;-78
2022/11/13 03:36:04;;;;;;;26.97;22.97;;;4.90;99.90;;;;;;2615898;54;20142;-78
2022/11/13 03:41:51;;;;;;;23.10;20.70;;;4.70;99.90;;;;;;2617324;54;20382;-78
2022/11/13 03:47:40;;;;;;;27.80;22.27;;;4.70;99.90;;;;;;2617216;54;20137;-78
2022/11/13 03:50:53;;;;;;;25.27;22.00;;;4.70;99.90;;;;;;2615602;47;20490;-78
2022/11/13 03:53:19;;;;;;;24.30;20.90;;;4.60;99.90;;;;;;2616347;46;20409;-78
2022/11/13 03:59:07;;;;;;;23.50;20.60;;;4.50;99.90;;;;;;2617066;54;20134;-78
2022/11/13 04:04:55;;;;;;;24.60;21.20;;;4.50;99.90;;;;;;2617229;54;20151;-76
2022/11/13 04:10:44;;;;;;;23.23;19.57;;;4.40;99.90;;;;;;2615722;54;20133;-78
2022/11/13 04:16:32;;;;;;;24.13;20.70;;;4.30;99.90;;;;;;2615901;54;20861;-75
2022/11/13 04:22:20;;;;;;;24.77;21.50;;;4.20;99.90;;;;;;2616125;54;20636;-76
2022/11/13 04:28:09;;;;;;;22.60;20.30;;;4.10;99.90;;;;;;2615635;54;20134;-77
2022/11/13 04:33:57;;;;;;;23.87;21.37;;;4.10;99.90;;;;;;2616049;54;21528;-76
2022/11/13 04:39:45;;;;;;;24.10;21.27;;;4.00;99.90;;;;;;2617263;54;20134;-78
2022/11/13 04:45:34;;;;;;;26.40;20.67;;;3.90;99.90;;;;;;2617473;54;20401;-79
2022/11/13 04:55:23;;;;;;;24.97;22.40;;;4.00;99.90;;;;;;2617217;54;20398;-78
2022/11/13 05:01:11;;;;;;;26.13;22.80;;;3.90;99.90;;;;;;2617854;54;20375;-79
2022/11/13 05:06:59;;;;;;;29.10;21.53;;;3.80;99.90;;;;;;2617957;54;20165;-79
2022/11/13 05:12:47;;;;;;;23.37;20.83;;;3.70;99.90;;;;;;2616403;54;20122;-78
2022/11/13 05:18:37;;;;;;;25.57;22.40;;;3.60;99.90;;;;;;2617720;54;20122;-78
2022/11/13 05:24:24;;;;;;;29.97;23.30;;;3.60;99.90;;;;;;2617271;54;20370;-78
2022/11/13 05:30:12;;;;;;;29.40;24.60;;;3.60;99.90;;;;;;2617360;54;20394;-79
2022/11/13 05:36:02;;;;;;;26.07;23.10;;;3.50;99.90;;;;;;2616354;54;20651;-78
2022/11/13 05:41:50;;;;;;;25.97;22.03;;;3.50;99.90;;;;;;2617865;39;20747;-77
2022/11/13 05:44:15;;;;;;;34.23;26.90;;;3.50;99.90;;;;;;2616059;54;20510;-77
2022/11/13 05:46:41;;;;;;;28.20;24.13;;;3.60;99.90;;;;;;2615865;47;20270;-79
2022/11/13 05:55:51;;;;;;;27.30;23.03;;;3.50;99.90;;;;;;2618422;31;20860;-78
2022/11/13 06:01:39;;;;;;;29.20;24.73;;;3.30;99.90;;;;;;2617226;54;20126;-79
2022/11/13 06:07:27;;;;;;;26.83;23.97;;;3.50;99.90;;;;;;2617423;54;20411;-78
2022/11/13 06:13:15;;;;;;;29.53;23.20;;;3.40;99.90;;;;;;2617475;54;20664;-79
2022/11/13 06:19:06;;;;;;;27.57;23.90;;;3.30;99.90;;;;;;2618978;39;20511;-79
2022/11/13 06:24:54;;;;;;;25.10;22.40;;;3.30;99.90;;;;;;2618166;54;20365;-79
2022/11/13 06:30:41;;;;;;;25.83;21.83;;;3.10;99.90;;;;;;2618008;54;22013;-78
2022/11/13 06:36:32;;;;;;;26.07;21.73;;;3.20;99.90;;;;;;2617034;54;20151;-78
2022/11/13 06:42:19;;;;;;;24.63;20.83;;;3.10;99.90;;;;;;2617374;39;20845;-78
2022/11/13 06:48:07;;;;;;;28.40;21.70;;;3.20;99.90;;;;;;2617159;54;20694;-79
2022/11/13 06:51:23;;;;;;;25.60;22.07;;;3.20;99.90;;;;;;2615196;47;20412;-80
2022/11/13 06:53:50;;;;;;;25.93;22.33;;;3.30;99.90;;;;;;2615160;54;20182;-77
2022/11/13 06:56:53;;;;;;;26.10;23.00;;;3.20;99.90;;;;;;2615750;39;21216;-78
2022/11/13 06:59:18;;;;;;;25.93;21.53;;;3.30;99.90;;;;;;2615008;47;20438;-79
2022/11/13 07:05:07;;;;;;;25.30;20.80;;;3.20;99.90;;;;;;2616588;54;20135;-79
2022/11/13 07:10:56;;;;;;;25.77;22.13;;;3.20;99.90;;;;;;2615501;54;20415;-79
2022/11/13 07:16:44;;;;;;;28.07;23.10;;;3.30;99.90;;;;;;2615312;54;20367;-79
2022/11/13 07:22:32;;;;;;;23.40;20.90;;;3.40;99.90;;;;;;2614502;54;20182;-78
2022/11/13 07:28:19;;;;;;;23.73;18.70;;;3.40;99.90;;;;;;2616436;54;20652;-78
2022/11/13 07:34:07;;;;;;;30.00;21.00;;;3.50;99.90;;;;;;2614637;54;20378;-78
2022/11/13 07:39:55;;;;;;;22.80;18.13;;;3.60;99.90;;;;;;2616210;54;20151;-78
2022/11/13 07:45:43;;;;;;;26.73;19.20;;;3.60;99.90;;;;;;2617261;39;20524;-78
2022/11/13 07:58:15;;;;;;;25.30;20.83;;;4.10;99.90;;;;;;2614942;54;20436;-76
2022/11/13 08:04:02;;;;;;;24.10;19.70;;;4.70;99.90;;;;;;2614623;46;20157;-76
2022/11/13 08:09:50;;;;;;;21.50;19.20;;;7.50;99.90;;;;;;2614481;54;20129;-75
2022/11/13 08:15:38;;;;;;;22.20;20.10;;;11.20;99.90;;;;;;2617258;54;20156;-79
2022/11/13 08:21:26;;;;;;;22.10;19.90;;;10.50;99.90;;;;;;2617056;54;20135;-77
2022/11/13 08:27:14;;;;;;;23.23;20.77;;;10.00;99.90;;;;;;2616092;54;20155;-79
2022/11/13 08:33:03;;;;;;;22.60;20.37;;;9.30;99.90;;;;;;2617929;54;20178;-78
2022/11/13 08:38:50;;;;;;;23.60;21.70;;;8.60;99.90;;;;;;2617681;54;20127;-77
2022/11/13 08:44:38;;;;;;;24.20;22.10;;;8.50;99.90;;;;;;2618272;54;20774;-76
2022/11/13 08:50:27;;;;;;;21.77;19.97;;;9.40;99.90;;;;;;2617558;54;20232;-77
2022/11/13 08:56:15;;;;;;;22.83;20.80;;;9.30;99.90;;;;;;2618140;54;20422;-78
2022/11/13 08:59:31;;;;;;;22.73;20.73;;;9.60;99.90;;;;;;2617586;47;20407;-78
2022/11/13 09:05:19;;;;;;;21.63;19.90;;;10.80;99.90;;;;;;2617260;39;20799;-78
2022/11/13 09:11:07;;;;;;;21.23;19.43;;;10.70;99.90;;;;;;2616116;54;20134;-78
2022/11/13 09:16:55;;;;;;;20.33;18.83;;;10.90;99.90;;;;;;2615280;54;20138;-78
2022/11/13 09:22:42;;;;;;;22.50;20.77;;;14.70;64.40;;;;;;2615663;54;20241;-78
2022/11/13 09:28:30;;;;;;;22.40;20.90;;;15.40;48.50;;;;;;2617375;54;20138;-77
2022/11/13 09:34:18;;;;;;;20.27;18.97;;;17.40;34.40;;;;;;2617794;46;20134;-76
2022/11/13 09:40:10;;;;;;;21.97;20.43;;;17.90;29.40;;;;;;2616295;54;20119;-78
2022/11/13 09:52:42;;;;;;;21.63;20.30;;;18.10;28.10;;;;;;2616480;54;21053;-79
2022/11/13 09:59:08;;;;;;;21.97;20.57;;;18.80;26.30;;;;;;2616354;54;20366;-79
2022/11/13 10:05:01;;;;;;;20.87;19.53;;;18.70;25.60;;;;;;2616116;54;20423;-79
2022/11/13 10:30:17;;;;;;;19.93;18.83;;;20.30;20.00;;;;;;2615463;54;20425;-78
2022/11/13 10:42:22;;;;;;;19.00;17.87;;;19.40;21.00;;;;;;2615092;54;20363;-78
2022/11/13 10:48:32;;;;;;;20.37;19.07;;;20.50;18.30;;;;;;2615524;54;20471;-77
2022/11/13 10:54:26;;;;;;;19.03;17.93;;;20.80;17.80;;;;;;2615974;54;20408;-78
2022/11/13 11:00:24;;;;;;;20.00;18.80;;;21.40;16.10;;;;;;2615720;54;20446;-79
2022/11/13 11:03:34;;;;;;;20.70;19.40;;;21.40;15.20;;;;;;2614740;47;20414;-78
2022/11/13 11:06:02;;;;;;;18.87;17.77;;;21.00;16.00;;;;;;2615793;54;20412;-79
2022/11/13 11:08:31;;;;;;;19.20;17.97;;;21.60;16.70;;;;;;2614819;48;20442;-80
2022/11/13 11:14:28;;;;;;;18.23;17.23;;;22.80;13.50;;;;;;2615182;54;20452;-79
2022/11/13 11:39:58;;;;;;;19.20;17.70;;;21.90;12.60;;;;;;2614151;39;20829;-77
2022/11/13 11:45:47;;;;;;;18.63;17.50;;;23.30;13.20;;;;;;2613253;54;21147;-78
2022/11/13 11:59:01;;;;;;;18.20;17.20;;;24.80;10.70;;;;;;2614819;54;20551;-77
2022/11/13 12:05:13;;;;;;;17.73;16.67;;;24.10;11.60;;;;;;2615473;39;20762;-77
2022/11/13 12:22:02;;;;;;;16.20;15.10;;;26.50;7.60;;;;;;2614124;54;20395;-78
2022/11/13 12:34:40;;;;;;;16.93;16.03;;;25.00;8.00;;;;;;2615598;54;20419;-76
2022/11/13 12:40:48;;;;;;;15.10;14.30;;;25.00;9.30;;;;;;2615184;54;20439;-79
2022/11/13 12:46:39;;;;;;;15.33;14.53;;;25.00;9.10;;;;;;2613658;54;20391;-77
2022/11/13 12:52:26;;;;;;;14.97;14.07;;;24.70;9.10;;;;;;2614662;54;20387;-78
2022/11/13 12:58:24;;;;;;;17.20;16.20;;;23.90;9.40;;;;;;2613501;54;20130;-78
2022/11/13 13:07:43;;;;;;;16.53;15.47;;;24.80;9.90;;;;;;2616369;54;20395;-78
2022/11/13 13:26:50;;;;;;;16.43;15.53;;;23.90;11.10;;;;;;2615784;54;20379;-78
2022/11/13 13:52:28;;;;;;;19.20;17.77;;;22.30;11.40;;;;;;2613839;54;20395;-78
2022/11/13 13:58:21;;;;;;;18.60;17.40;;;23.10;12.40;;;;;;2611530;54;20987;-80
2022/11/13 14:07:32;;;;;;;16.87;15.70;;;22.60;13.40;;;;;;2617416;54;20411;-81
2022/11/13 14:13:25;;;;;;;18.23;17.03;;;23.10;13.20;;;;;;2618723;39;20856;-81
2022/11/13 14:19:12;;;;;;;18.50;17.10;;;22.60;13.50;;;;;;2618566;54;20412;-80
2022/11/13 14:25:00;;;;;;;17.33;16.30;;;23.50;12.60;;;;;;2618581;54;20232;-79
2022/11/13 14:30:57;;;;;;;17.73;16.43;;;22.70;13.90;;;;;;2619583;54;20375;-81
2022/11/13 14:36:47;;;;;;;18.33;17.33;;;22.80;13.50;;;;;;2619491;54;20415;-81
2022/11/13 14:48:54;;;;;;;17.80;16.70;;;22.90;13.90;;;;;;2617882;54;20390;-81
2022/11/13 14:54:41;;;;;;;18.13;17.13;;;21.50;15.50;;;;;;2617819;54;20379;-82
2022/11/13 15:00:35;;;;;;;19.07;17.97;;;17.60;22.90;;;;;;2616617;54;20135;-81
2022/11/13 15:09:44;;;;;;;19.47;18.27;;;15.60;32.00;;;;;;2618303;54;20416;-80
2022/11/13 15:15:32;;;;;;;16.20;15.20;;;15.10;36.40;;;;;;2619351;54;20173;-80
2022/11/13 15:21:20;;;;;;;14.50;13.60;;;14.80;30.80;;;;;;2617784;39;20650;-80
2022/11/13 15:27:13;;;;;;;16.67;15.37;;;14.40;34.40;;;;;;2618566;54;20138;-80
2022/11/13 15:33:04;;;;;;;16.77;15.70;;;13.70;47.00;;;;;;2618937;54;21141;-79
2022/11/13 15:38:53;;;;;;;14.33;13.50;;;13.10;74.80;;;;;;2618578;54;20503;-80
2022/11/13 15:44:40;;;;;;;15.70;14.70;;;12.60;92.30;;;;;;2617632;54;20430;-80
2022/11/13 15:50:28;;;;;;;15.80;14.80;;;12.10;99.90;;;;;;2617728;54;20403;-81
2022/11/13 15:56:17;;;;;;;15.03;14.03;;;11.90;99.90;;;;;;2617935;54;20165;-80
2022/11/13 16:02:05;;;;;;;19.60;17.70;;;11.40;99.90;;;;;;2617831;54;20427;-81
2022/11/13 16:05:05;;;;;;;17.00;15.67;;;11.00;99.90;;;;;;2617758;39;20740;-78
2022/11/13 16:07:32;;;;;;;17.60;16.23;;;10.90;99.90;;;;;;2616827;47;20174;-79
2022/11/13 16:13:19;;;;;;;17.43;15.87;;;10.70;99.90;;;;;;2617272;54;20546;-80
2022/11/13 16:19:12;;;;;;;22.80;20.47;;;10.40;99.90;;;;;;2618191;54;20122;-79
2022/11/13 16:25:00;;;;;;;20.80;17.67;;;10.10;99.90;;;;;;2619030;54;20350;-80
2022/11/13 16:30:50;;;;;;;17.63;16.13;;;9.90;99.90;;;;;;2618849;39;20764;-82
2022/11/13 16:36:39;;;;;;;18.80;16.80;;;9.60;99.90;;;;;;2616903;54;20484;-81
2022/11/13 16:42:27;;;;;;;19.67;17.87;;;9.40;99.90;;;;;;2618094;54;20404;-81
2022/11/13 16:48:16;;;;;;;17.50;15.80;;;9.20;99.90;;;;;;2618975;39;20754;-80
2022/11/13 16:54:04;;;;;;;17.17;15.57;;;8.90;99.90;;;;;;2618374;54;20367;-81
2022/11/13 16:59:51;;;;;;;25.80;19.43;;;8.80;99.90;;;;;;2616062;54;20138;-80
2022/11/13 17:09:37;;;;;;;19.70;17.97;;;8.60;99.90;;;;;;2617259;54;20395;-80
2022/11/13 17:15:25;;;;;;;26.10;20.77;;;8.30;99.90;;;;;;2618642;54;20935;-79
2022/11/13 17:21:14;;;;;;;20.63;18.53;;;8.20;99.90;;;;;;2618884;54;20154;-80
2022/11/13 17:27:02;;;;;;;21.73;18.90;;;7.90;99.90;;;;;;2619190;54;20415;-80
2022/11/13 17:32:50;;;;;;;22.10;19.90;;;7.80;99.90;;;;;;2618724;54;20159;-79
2022/11/13 17:38:38;;;;;;;24.87;19.80;;;7.70;99.90;;;;;;2618561;54;20141;-80
2022/11/13 17:44:26;;;;;;;21.13;18.93;;;7.50;99.90;;;;;;2617969;54;20371;-81
2022/11/13 17:50:15;;;;;;;22.10;19.20;;;7.30;99.90;;;;;;2617955;54;20126;-80
2022/11/13 17:56:08;;;;;;;23.00;20.90;;;7.20;99.90;;;;;;2618626;54;20394;-80
2022/11/13 18:01:56;;;;;;;26.07;23.40;;;7.10;99.90;;;;;;2618252;54;20527;-80
2022/11/13 18:05:08;;;;;;;27.40;24.33;;;7.10;99.90;;;;;;2618389;54;20482;-80
2022/11/13 18:07:34;;;;;;;28.87;25.70;;;7.00;99.90;;;;;;2618747;54;20402;-80
2022/11/13 18:13:24;;;;;;;33.23;25.47;;;7.10;99.90;;;;;;2617966;46;20407;-81
2022/11/13 18:19:12;;;;;;;31.20;27.30;;;6.90;99.90;;;;;;2618692;54;20478;-81
2022/11/13 18:25:02;;;;;;;29.30;26.47;;;6.70;99.90;;;;;;2619090;54;20889;-81
2022/11/13 18:30:49;;;;;;;35.33;27.30;;;6.60;99.90;;;;;;2614839;54;20402;-77
2022/11/13 18:36:37;;;;;;;25.17;22.50;;;6.50;99.90;;;;;;2615707;54;20186;-79
2022/11/13 18:42:25;;;;;;;30.73;21.70;;;6.40;99.90;;;;;;2616295;54;20246;-79
2022/11/13 18:48:13;;;;;;;27.47;24.67;;;6.40;99.90;;;;;;2615410;54;20135;-78
2022/11/13 18:51:16;;;;;;;31.00;27.80;;;6.30;99.90;;;;;;2614851;54;20522;-78
2022/11/13 18:53:44;;;;;;;27.20;24.30;;;6.40;99.90;;;;;;2615572;54;20197;-78
2022/11/13 18:59:32;;;;;;;31.70;25.13;;;6.20;99.90;;;;;;2616414;54;20358;-77
2022/11/13 19:09:39;;;;;;;24.07;21.70;;;6.10;99.90;;;;;;2616111;54;20402;-77
2022/11/13 19:15:27;;;;;;;29.60;26.60;;;5.90;99.90;;;;;;2614966;54;20408;-78
2022/11/13 19:21:17;;;;;;;28.50;25.50;;;5.80;99.90;;;;;;2614647;54;20142;-77
2022/11/13 19:27:05;;;;;;;33.00;28.80;;;5.80;99.90;;;;;;2614969;54;20428;-76
2022/11/13 19:32:53;;;;;;;38.17;31.10;;;5.60;99.90;;;;;;2614348;54;20140;-76
2022/11/13 19:38:42;;;;;;;36.87;31.20;;;5.50;99.90;;;;;;2616683;54;20130;-76
2022/11/13 19:44:31;;;;;;;41.30;32.40;;;5.60;99.90;;;;;;2615922;54;20375;-77
2022/11/13 19:50:18;;;;;;;38.80;31.80;;;5.40;99.90;;;;;;2615946;54;20370;-75
2022/11/13 19:56:06;;;;;;;30.47;26.80;;;5.30;99.90;;;;;;2617528;54;20253;-77
2022/11/13 20:01:54;;;;;;;41.93;34.00;;;5.20;99.90;;;;;;2617815;54;20362;-76
2022/11/13 20:05:06;;;;;;;43.20;34.20;;;5.20;99.90;;;;;;2617055;47;20367;-76
2022/11/13 20:07:32;;;;;;;40.10;31.20;;;5.10;99.90;;;;;;2617113;46;20198;-77
2022/11/13 20:13:20;;;;;;;36.27;30.63;;;5.10;99.90;;;;;;2615965;39;20792;-77
2022/11/13 20:19:07;;;;;;;38.10;30.57;;;5.10;99.90;;;;;;2613949;54;20647;-77
2022/11/13 20:24:54;;;;;;;45.83;31.80;;;4.90;99.90;;;;;;2613641;54;20170;-77
2022/11/13 20:34:03;;;;;;;39.27;32.77;;;4.80;99.90;;;;;;2615258;54;20475;-76
2022/11/13 20:39:51;;;;;;;30.53;26.17;;;4.90;99.90;;;;;;2615306;54;20143;-76
2022/11/13 20:45:38;;;;;;;35.00;25.90;;;4.90;99.90;;;;;;2615377;54;20134;-79
2022/11/13 20:51:27;;;;;;;30.27;27.07;;;4.80;99.90;;;;;;2616395;54;20139;-76
2022/11/13 20:57:16;;;;;;;31.00;26.03;;;4.70;99.90;;;;;;2616737;54;20362;-75
2022/11/13 21:03:06;;;;;;;31.67;25.70;;;4.70;99.90;;;;;;2617295;54;20378;-76
2022/11/13 21:12:15;;;;;;;29.20;25.20;;;4.50;99.90;;;;;;2617250;54;20385;-75
2022/11/13 21:18:03;;;;;;;28.97;24.73;;;4.50;99.90;;;;;;2616788;54;20130;-75
2022/11/13 21:23:55;;;;;;;28.20;24.30;;;4.50;99.90;;;;;;2616648;54;20408;-75
2022/11/13 21:29:42;;;;;;;29.23;24.00;;;4.50;99.90;;;;;;2615805;54;20486;-77
2022/11/13 21:35:30;;;;;;;27.73;22.73;;;4.40;99.90;;;;;;2617215;54;20687;-77
2022/11/13 21:41:26;;;;;;;24.47;22.07;;;4.40;99.90;;;;;;2616921;54;20131;-77
2022/11/13 21:47:13;;;;;;;28.97;20.67;;;4.40;99.90;;;;;;2615094;54;20390;-76
2022/11/13 21:53:00;;;;;;;22.60;20.10;;;4.30;99.90;;;;;;2615478;39;20579;-77
2022/11/13 21:58:47;;;;;;;22.67;20.33;;;4.10;99.90;;;;;;2613927;54;20150;-76
2022/11/13 22:04:34;;;;;;;21.97;19.80;;;4.00;99.90;;;;;;2616132;54;20168;-81
2022/11/13 22:07:38;;;;;;;26.70;21.50;;;4.00;99.90;;;;;;2615661;47;21021;-79
2022/11/13 22:13:43;;;;;;;29.90;24.20;;;4.20;99.90;;;;;;2617054;31;20959;-81
2022/11/13 22:19:30;;;;;;;26.40;23.43;;;4.20;99.90;;;;;;2616654;54;20395;-80
2022/11/13 22:25:17;;;;;;;26.80;23.90;;;4.00;99.90;;;;;;2616672;39;20546;-80
2022/11/13 22:31:05;;;;;;;29.20;25.10;;;3.70;99.90;;;;;;2615774;54;20151;-81
2022/11/13 22:36:52;;;;;;;29.33;23.97;;;3.50;99.90;;;;;;2617042;54;20403;-76
2022/11/13 22:42:40;;;;;;;25.57;22.80;;;3.50;99.90;;;;;;2614809;54;20829;-74
2022/11/13 22:48:27;;;;;;;26.67;22.57;;;3.50;99.90;;;;;;2617403;54;20173;-75
2022/11/13 22:54:15;;;;;;;29.57;24.20;;;3.60;99.90;;;;;;2617277;54;20126;-77
2022/11/13 23:00:08;;;;;;;28.83;24.50;;;3.50;99.90;;;;;;2615541;54;20172;-75
2022/11/13 23:05:55;;;;;;;29.17;24.80;;;3.60;99.90;;;;;;2616709;54;20919;-76
2022/11/13 23:09:10;;;;;;;31.87;24.40;;;3.40;99.90;;;;;;2616434;54;20402;-75
2022/11/13 23:11:38;;;;;;;26.80;21.57;;;3.40;99.90;;;;;;2617516;31;20629;-75
2022/11/13 23:17:26;;;;;;;24.97;21.80;;;3.40;99.90;;;;;;2616679;39;21176;-75
2022/11/13 23:23:16;;;;;;;23.20;20.77;;;3.20;99.90;;;;;;2616158;54;20152;-75
2022/11/13 23:29:05;;;;;;;23.77;21.43;;;3.10;99.90;;;;;;2616428;54;20463;-76
2022/11/13 23:34:52;;;;;;;22.90;20.70;;;3.10;99.90;;;;;;2616583;54;20162;-75
2022/11/13 23:40:40;;;;;;;24.50;20.33;;;3.00;99.90;;;;;;2616983;54;20639;-76
2022/11/13 23:46:27;;;;;;;24.57;21.90;;;3.00;99.90;;;;;;2614003;54;20162;-76
2022/11/13 23:52:14;;;;;;;23.50;18.67;;;2.90;99.90;;;;;;2615539;54;20179;-76
